Lakefront Airport
KNEW : now visible

Airfield :











YOU CAN JOIN US ON...

 
LOGIN :

Register | Disclaimer

   EN    FR    IT 

 









Legend :    VFR   Marginal VFR   IFR   Intensive IFR   Very Intensive IFR
Visi :
Ceiling :
>= 8 km
>= 3000ft
5 to 8 km
1000 to 3000 ft
1500m to 5 km
500 to 1000 ft
800 to 1500m
200 to 500 ft
< 800m
< 200 ft
Symbols :   Thunderstorms  Fog  Heavy snow  Heavy precipitations  Wind > 20 kt






- Airport Elevation : 8 ft


KNEW - Lakefront

CURRENT METAR :
  • 080311Z AUTO 10005KT 3SM BR OVC003 17/16 A3000 RMK AO2 T01720161

EXPIRED METARs :
  • 080253Z AUTO 09007KT 2 1/2SM BR OVC003 17/16 A3000 RMK AO2 SLP153 T01720161 58006
  • 080235Z AUTO 09006KT 3SM BR OVC003 17/16 A3001 RMK AO2 T01670156
  • 080215Z AUTO 09007KT 2 1/2SM BR OVC002 17/16 A3001 RMK AO2 T01670156
  • 080153Z AUTO 09004KT 1 3/4SM BR OVC002 17/16 A3001 RMK AO2 SLP156 T01670156
  • 080053Z AUTO 07005KT 2SM BR OVC002 17/16 A3002 RMK AO2 SLP159 T01670156

TAF KNEW
Valid from the 08 at 02:00 until the 09 at 00:00 UTC


080159Z 0802/0824 08010KT 1 1/2SM BR OVC002
FM080500 VRB06KT 1/2SM FG OVC002
FM081600 01007KT 2SM BR BKN003
KZHU FIR / North America



MET'MAP, your aeronautical weather chart ! - Copyright ORBIFLY December 2007 - Disclaimer

ORBIFLY MET'MAP TEAM :

Programming & Development : Alexandra Zaïnal
Concept & original design : Baudouin d'Aumeries
Assistance for programming : Marc-Olivier Méhu
Technical & hardware support : Manuel Goepfert

Contact : metmap@orbifly.com




SOURCES & CREDITS :

   NOAA       Earth
Advisory